Time;durP1;ratioP1;P1;durP2;ratioP2;P2;SDS_P1;SDS_P2;PMS_P1;PMS_P2;Temp;Humidity;BMP_temperature;BMP_pressure;BME280_temperature;BME280_humidity;BME280_pressure;Samples;Min_cycle;Max_cycle;Signal;HPM_P1;HPM_P2
2023/06/10 00:01:47;;;;;;;6.00;5.47;;;15.80;79.60;;;-147.95;100.00;61948.03;5026222;28;20484;-73
2023/06/10 00:04:14;;;;;;;7.50;6.60;;;15.70;79.70;;;-147.95;100.00;61948.03;5025120;28;20552;-71
2023/06/10 00:06:43;;;;;;;7.70;6.20;;;15.70;80.20;;;-147.95;100.00;61948.03;5029344;28;20480;-72
2023/06/10 00:09:11;;;;;;;7.67;5.73;;;15.60;80.70;;;-147.95;100.00;61948.03;5028767;28;20497;-71
2023/06/10 00:11:38;;;;;;;7.63;6.10;;;15.60;80.60;;;-147.95;100.00;61948.03;5013469;28;20472;-73
2023/06/10 00:14:08;;;;;;;7.00;6.17;;;15.60;80.80;;;-147.95;100.00;61948.03;5030852;28;20465;-72
2023/06/10 00:16:35;;;;;;;6.30;5.40;;;15.40;80.80;;;-147.95;100.00;61948.03;5012262;28;20579;-71
2023/06/10 00:19:03;;;;;;;6.60;5.90;;;15.40;81.40;;;-147.95;100.00;61948.03;5030065;28;20464;-71
2023/06/10 00:21:37;;;;;;;5.97;5.47;;;15.30;81.50;;;-147.95;100.00;61948.03;5027932;28;20571;-72
2023/06/10 00:24:06;;;;;;;6.97;6.17;;;15.10;81.70;;;-147.95;100.00;61948.03;5026904;28;20462;-73
2023/06/10 00:26:34;;;;;;;6.00;5.43;;;15.00;81.50;;;-147.95;100.00;61948.03;5009828;28;20458;-72
2023/06/10 00:29:01;;;;;;;6.20;5.40;;;15.00;82.00;;;-147.95;100.00;61948.03;5027961;28;20465;-71
2023/06/10 00:31:30;;;;;;;6.63;5.93;;;14.90;82.10;;;-147.95;100.00;61948.03;5027565;28;20461;-72
2023/06/10 00:33:58;;;;;;;5.60;5.10;;;14.80;82.30;;;-147.95;100.00;61948.03;5028844;28;20477;-71
2023/06/10 00:36:26;;;;;;;6.40;5.63;;;14.80;82.70;;;-147.95;100.00;61948.03;5010214;28;20517;-72
2023/06/10 00:38:53;;;;;;;6.43;5.83;;;14.80;82.80;;;-147.95;100.00;61948.03;5028461;28;20555;-72
2023/06/10 00:41:21;;;;;;;6.80;6.10;;;14.80;83.10;;;-147.95;100.00;61948.03;5026882;28;20473;-72
2023/06/10 00:43:48;;;;;;;5.67;5.17;;;14.80;83.40;;;-147.95;100.00;61948.03;5026702;28;20978;-72
2023/06/10 00:46:16;;;;;;;6.87;6.17;;;14.80;83.50;;;-147.95;100.00;61948.03;5027220;28;20471;-71
2023/06/10 00:48:46;;;;;;;5.80;5.20;;;14.90;83.50;;;-147.95;100.00;61948.03;5027499;28;20738;-72
2023/06/10 00:51:14;;;;;;;6.63;6.03;;;14.90;83.60;;;-147.95;100.00;61948.03;5027373;28;20460;-73
2023/06/10 00:53:43;;;;;;;6.83;6.10;;;14.90;83.80;;;-147.95;100.00;61948.03;5010296;28;21259;-71
2023/06/10 00:56:10;;;;;;;6.87;6.17;;;14.90;84.00;;;-147.95;100.00;61948.03;5009685;28;21015;-70
2023/06/10 00:58:38;;;;;;;6.33;5.73;;;14.90;83.90;;;-147.95;100.00;61948.03;5027265;28;20476;-72
2023/06/10 01:01:05;;;;;;;6.53;5.93;;;15.00;83.70;;;-147.95;100.00;61948.03;5009005;28;20900;-71
2023/06/10 01:03:36;;;;;;;6.33;5.73;;;14.90;83.90;;;-147.95;100.00;61948.03;5009835;28;20457;-71
2023/06/10 01:06:17;;;;;;;7.00;6.30;;;14.80;84.20;;;-147.95;100.00;61948.03;5026842;28;20998;-71
2023/06/10 01:08:55;;;;;;;5.93;5.27;;;14.70;84.80;;;-147.95;100.00;61948.03;5026282;28;20460;-71
2023/06/10 01:11:38;;;;;;;6.57;5.93;;;14.80;85.10;;;-147.95;100.00;61948.03;5010741;28;20484;-72
2023/06/10 01:14:07;;;;;;;7.07;5.27;;;14.70;85.10;;;-147.95;100.00;61948.03;5010334;28;20452;-71
2023/06/10 01:16:35;;;;;;;7.20;6.37;;;14.70;85.10;;;-147.95;100.00;61948.03;5026460;28;20949;-71
2023/06/10 01:19:03;;;;;;;7.60;6.67;;;14.50;85.50;;;-147.95;100.00;61948.03;5026988;28;20466;-72
2023/06/10 01:21:32;;;;;;;5.90;5.40;;;14.50;86.10;;;-147.95;100.00;61948.03;5026340;28;20837;-71
2023/06/10 01:23:59;;;;;;;6.77;6.07;;;14.40;86.80;;;-147.95;100.00;61948.03;5025351;28;20555;-72
2023/06/10 01:26:31;;;;;;;6.80;5.97;;;14.40;87.10;;;-147.95;100.00;61948.03;5024792;28;20563;-71
2023/06/10 01:29:07;;;;;;;7.83;7.00;;;14.40;87.80;;;-147.95;100.00;61948.03;5025322;28;20575;-72
2023/06/10 01:31:43;;;;;;;8.90;7.23;;;14.30;88.40;;;-147.95;100.00;61948.03;5024685;28;20461;-71
2023/06/10 01:34:14;;;;;;;7.80;6.13;;;14.20;89.20;;;-147.95;100.00;61948.03;5025946;28;20459;-71
2023/06/10 01:36:47;;;;;;;7.23;6.53;;;14.10;90.00;;;-147.95;100.00;61948.03;5026501;28;20979;-73
2023/06/10 01:39:17;;;;;;;9.80;7.23;;;14.20;90.20;;;-147.95;100.00;61948.03;5009488;28;20829;-71
2023/06/10 01:41:45;;;;;;;8.73;7.50;;;14.20;90.90;;;-147.95;100.00;61948.03;5008605;28;20483;-71
2023/06/10 01:44:12;;;;;;;11.33;7.60;;;14.10;90.50;;;-147.95;100.00;61948.03;5026014;28;20807;-72
2023/06/10 01:46:39;;;;;;;8.50;7.60;;;14.10;91.00;;;-147.95;100.00;61948.03;5025184;28;20540;-72
2023/06/10 01:49:07;;;;;;;9.23;8.27;;;14.00;91.00;;;-147.95;100.00;61948.03;5026342;28;21013;-72
2023/06/10 01:51:35;;;;;;;11.13;8.00;;;13.90;91.20;;;-147.95;100.00;61948.03;5024808;28;20886;-72
2023/06/10 01:54:04;;;;;;;8.20;7.43;;;13.90;91.40;;;-147.95;100.00;61948.03;5027216;28;20448;-71
2023/06/10 01:56:31;;;;;;;9.50;7.77;;;13.80;91.80;;;-147.95;100.00;61948.03;5026317;28;20563;-73
2023/06/10 01:58:59;;;;;;;7.73;6.93;;;13.80;92.20;;;-147.95;100.00;61948.03;5025236;28;20980;-72
2023/06/10 02:01:26;;;;;;;8.27;7.47;;;13.80;92.20;;;-147.95;100.00;61948.03;5025997;28;20479;-71
2023/06/10 02:03:53;;;;;;;7.93;7.13;;;13.80;92.40;;;-147.95;100.00;61948.03;5009110;28;20813;-71
2023/06/10 02:06:21;;;;;;;7.97;7.17;;;13.80;92.80;;;-147.95;100.00;61948.03;5008121;28;20450;-72
2023/06/10 02:08:48;;;;;;;8.60;7.80;;;13.70;93.10;;;-147.95;100.00;61948.03;5008325;28;20488;-70
2023/06/10 02:11:17;;;;;;;9.50;7.50;;;13.70;93.40;;;-147.95;100.00;61948.03;5024462;28;20459;-72
2023/06/10 02:13:44;;;;;;;9.43;8.30;;;13.60;93.50;;;-147.95;100.00;61948.03;5026728;28;20825;-71
2023/06/10 02:16:12;;;;;;;9.93;7.53;;;13.70;93.80;;;-147.95;100.00;61948.03;5026042;28;20512;-72
2023/06/10 02:18:42;;;;;;;8.90;7.80;;;13.70;93.50;;;-147.95;100.00;61948.03;5026259;28;20553;-71
2023/06/10 02:21:10;;;;;;;8.60;7.80;;;13.60;93.70;;;-147.95;100.00;61948.03;5012397;28;20570;-72
2023/06/10 02:23:37;;;;;;;7.63;6.83;;;13.70;93.80;;;-147.95;100.00;61948.03;5028435;28;20933;-72
2023/06/10 02:26:04;;;;;;;9.33;8.03;;;13.70;93.60;;;-147.95;100.00;61948.03;5029487;28;20492;-72
2023/06/10 02:28:33;;;;;;;9.60;8.03;;;13.70;93.20;;;-147.95;100.00;61948.03;5028806;28;20465;-71
2023/06/10 02:31:00;;;;;;;9.63;8.37;;;13.70;93.60;;;-147.95;100.00;61948.03;5029712;28;20545;-72
2023/06/10 02:33:28;;;;;;;8.77;7.07;;;13.70;93.80;;;-147.95;100.00;61948.03;5029201;28;20460;-71
2023/06/10 02:35:56;;;;;;;7.33;6.63;;;13.60;94.10;;;-147.95;100.00;61948.03;5011905;28;20455;-72
2023/06/10 02:38:23;;;;;;;8.67;7.03;;;13.60;94.30;;;-147.95;100.00;61948.03;5027676;28;20459;-72
2023/06/10 02:40:50;;;;;;;9.37;7.70;;;13.60;94.50;;;-147.95;100.00;61948.03;5033546;28;20463;-72
2023/06/10 02:43:18;;;;;;;8.40;6.97;;;13.50;94.70;;;-147.95;100.00;61948.03;5030458;28;20492;-72
2023/06/10 02:45:46;;;;;;;8.20;6.47;;;13.50;94.80;;;-147.95;100.00;61948.03;5029922;28;20464;-72
2023/06/10 02:48:13;;;;;;;8.83;7.10;;;13.50;95.10;;;-147.95;100.00;61948.03;5028672;28;20452;-72
2023/06/10 02:50:41;;;;;;;9.37;7.93;;;13.50;95.60;;;-147.95;100.00;61948.03;5033132;28;20991;-72
2023/06/10 02:53:08;;;;;;;8.57;7.70;;;13.60;95.20;;;-147.95;100.00;61948.03;5028929;28;20530;-71
2023/06/10 02:55:35;;;;;;;8.33;7.37;;;13.70;94.10;;;-147.95;100.00;61948.03;5029604;28;20470;-71
2023/06/10 02:58:03;;;;;;;8.57;7.70;;;13.80;94.20;;;-147.95;100.00;61948.03;5011687;28;20468;-72
2023/06/10 03:00:30;;;;;;;8.10;6.73;;;13.80;94.00;;;-147.95;100.00;61948.03;5011449;28;20551;-71
2023/06/10 03:03:03;;;;;;;8.50;7.30;;;13.70;94.50;;;-147.95;100.00;61948.03;5028841;28;20476;-71
2023/06/10 03:05:31;;;;;;;11.33;6.70;;;13.70;94.20;;;-147.95;100.00;61948.03;5029903;28;20468;-72
2023/06/10 03:07:58;;;;;;;8.70;7.77;;;13.70;95.20;;;-147.95;100.00;61948.03;5029366;28;21038;-72
2023/06/10 03:10:26;;;;;;;9.67;7.10;;;13.70;95.00;;;-147.95;100.00;61948.03;5030343;28;20980;-71
2023/06/10 03:12:54;;;;;;;9.50;7.80;;;13.60;95.80;;;-147.95;100.00;61948.03;5028663;28;20607;-72
2023/06/10 03:15:21;;;;;;;7.80;6.70;;;13.70;95.70;;;-147.95;100.00;61948.03;5010431;28;20979;-73
2023/06/10 03:17:48;;;;;;;9.20;7.20;;;13.70;95.30;;;-147.95;100.00;61948.03;5010705;28;20514;-72
2023/06/10 03:20:17;;;;;;;8.07;7.00;;;13.70;94.80;;;-147.95;100.00;61948.03;5027396;28;20970;-73
2023/06/10 03:22:44;;;;;;;10.07;8.23;;;13.60;95.30;;;-147.95;100.00;61948.03;5027180;28;20479;-71
2023/06/10 03:25:13;;;;;;;9.10;6.57;;;13.50;96.10;;;-147.95;100.00;61948.03;5027761;28;20466;-72
2023/06/10 03:27:40;;;;;;;10.30;7.73;;;13.40;96.40;;;-147.95;100.00;61948.03;5028679;28;20460;-70
2023/06/10 03:30:09;;;;;;;7.93;6.63;;;13.40;97.00;;;-147.95;100.00;61948.03;5027053;28;20543;-71
2023/06/10 03:32:37;;;;;;;8.60;7.70;;;13.60;95.90;;;-147.95;100.00;61948.03;5028719;28;20464;-71
2023/06/10 03:35:06;;;;;;;10.17;7.80;;;13.80;94.20;;;-147.95;100.00;61948.03;5028579;28;20452;-71
2023/06/10 03:37:35;;;;;;;7.50;6.80;;;13.80;94.30;;;-147.95;100.00;61948.03;5027218;28;20851;-72
2023/06/10 03:40:04;;;;;;;7.47;6.70;;;13.80;94.30;;;-147.95;100.00;61948.03;5027620;28;21200;-71
2023/06/10 03:42:32;;;;;;;10.23;7.30;;;13.80;94.00;;;-147.95;100.00;61948.03;5029462;28;20987;-73
2023/06/10 03:44:59;;;;;;;8.37;6.60;;;13.80;94.20;;;-147.95;100.00;61948.03;5027704;28;20456;-71
2023/06/10 03:47:26;;;;;;;7.20;6.50;;;13.90;94.10;;;-147.95;100.00;61948.03;5009838;28;20577;-72
2023/06/10 03:49:53;;;;;;;6.40;5.80;;;14.00;94.00;;;-147.95;100.00;61948.03;5027635;28;20946;-71
2023/06/10 03:52:20;;;;;;;8.87;6.30;;;14.10;93.90;;;-147.95;100.00;61948.03;5026970;28;20462;-70
2023/06/10 03:54:49;;;;;;;7.30;6.60;;;14.10;93.80;;;-147.95;100.00;61948.03;5011158;28;20467;-72
2023/06/10 03:57:16;;;;;;;8.67;7.03;;;14.20;94.00;;;-147.95;100.00;61948.03;5027108;28;20457;-71
2023/06/10 03:59:43;;;;;;;7.33;6.63;;;14.30;93.60;;;-147.95;100.00;61948.03;5028762;28;20465;-71
2023/06/10 04:02:11;;;;;;;8.73;6.60;;;14.40;93.20;;;-147.95;100.00;61948.03;5027244;28;20534;-74
2023/06/10 04:04:38;;;;;;;8.27;7.47;;;14.70;92.30;;;-147.95;100.00;61948.03;5011174;28;20468;-72
2023/06/10 04:07:06;;;;;;;8.40;7.60;;;15.00;91.30;;;-147.95;100.00;61948.03;5027194;28;20460;-72
2023/06/10 04:09:33;;;;;;;8.40;7.53;;;15.80;89.10;;;-147.95;100.00;61948.03;5027399;28;20466;-72
2023/06/10 04:12:06;;;;;;;8.50;6.80;;;16.40;86.30;;;-147.95;100.00;61948.03;5026125;28;20526;-72
2023/06/10 04:14:33;;;;;;;10.30;7.27;;;17.00;84.70;;;-147.95;100.00;61948.03;5010962;28;20945;-73
2023/06/10 04:17:00;;;;;;;8.60;7.77;;;17.40;83.50;;;-147.95;100.00;61948.03;5009426;28;20516;-71
2023/06/10 04:19:28;;;;;;;7.50;6.50;;;17.80;82.40;;;-147.95;100.00;61948.03;5028678;28;20497;-73
2023/06/10 04:21:55;;;;;;;7.50;6.80;;;18.20;81.10;;;-147.95;100.00;61948.03;5028226;28;20473;-73
2023/06/10 04:24:22;;;;;;;8.07;6.63;;;18.80;80.00;;;-147.95;100.00;61948.03;5028416;28;20463;-71
2023/06/10 04:26:50;;;;;;;7.50;6.80;;;19.80;78.00;;;-147.95;100.00;61948.03;5026042;28;20458;-73
2023/06/10 04:29:18;;;;;;;7.47;6.10;;;20.30;76.20;;;-147.95;100.00;61948.03;5028324;28;20462;-73
2023/06/10 04:31:46;;;;;;;7.30;6.60;;;20.60;74.40;;;-147.95;100.00;61948.03;5026094;28;20472;-72
2023/06/10 04:34:14;;;;;;;6.57;5.97;;;21.20;72.40;;;-147.95;100.00;61948.03;5028596;28;20452;-72
2023/06/10 04:36:42;;;;;;;7.23;6.03;;;21.60;70.70;;;-147.95;100.00;61948.03;5027608;28;20477;-73
2023/06/10 04:39:09;;;;;;;6.63;5.90;;;21.90;69.10;;;-147.95;100.00;61948.03;5026156;28;20567;-73
2023/06/10 04:41:36;;;;;;;8.67;7.20;;;22.30;67.70;;;-147.95;100.00;61948.03;5030182;28;20461;-74
2023/06/10 04:44:04;;;;;;;6.73;6.03;;;22.40;66.90;;;-147.95;100.00;61948.03;5027418;28;20453;-72
2023/06/10 04:46:33;;;;;;;7.63;6.97;;;23.10;65.50;;;-147.95;100.00;61948.03;5027602;28;20938;-73
2023/06/10 04:49:00;;;;;;;6.90;6.30;;;23.00;64.80;;;-147.95;100.00;61948.03;5026631;28;20536;-73
2023/06/10 04:51:28;;;;;;;7.60;6.43;;;22.60;64.70;;;-147.95;100.00;61948.03;5027227;28;20496;-73
2023/06/10 04:53:56;;;;;;;7.57;6.90;;;22.90;64.40;;;-147.95;100.00;61948.03;5028195;28;20549;-74
2023/06/10 04:56:23;;;;;;;7.43;6.80;;;22.90;64.10;;;-147.95;100.00;61948.03;5025446;28;20462;-72
2023/06/10 04:58:50;;;;;;;6.83;6.27;;;23.10;63.50;;;-147.95;100.00;61948.03;5019397;28;20523;-73
2023/06/10 05:01:18;;;;;;;6.73;6.07;;;23.00;63.10;;;-147.95;100.00;61948.03;5027236;28;21171;-73
2023/06/10 05:03:47;;;;;;;7.27;6.57;;;23.00;63.40;;;-147.95;100.00;61948.03;5027510;28;20548;-73
2023/06/10 05:06:14;;;;;;;7.03;6.37;;;23.30;62.70;;;-147.95;100.00;61948.03;5026950;28;20520;-73
2023/06/10 05:08:41;;;;;;;6.70;6.10;;;23.60;62.40;;;-147.95;100.00;61948.03;5009599;28;20528;-74
2023/06/10 05:11:09;;;;;;;6.27;5.70;;;23.90;61.60;;;-147.95;100.00;61948.03;5026671;28;20458;-74
2023/06/10 05:13:36;;;;;;;6.93;6.33;;;24.10;61.10;;;-147.95;100.00;61948.03;5011651;28;20801;-73
2023/06/10 05:16:04;;;;;;;6.70;5.93;;;24.00;60.60;;;-147.95;100.00;61948.03;5025421;28;20465;-74
2023/06/10 05:18:31;;;;;;;6.80;6.13;;;23.60;60.60;;;-147.95;100.00;61948.03;5026960;28;20461;-73
2023/06/10 05:20:59;;;;;;;6.60;6.00;;;23.80;60.90;;;-147.95;100.00;61948.03;5008984;28;20458;-73
2023/06/10 05:23:27;;;;;;;6.90;6.20;;;23.80;60.50;;;-147.95;100.00;61948.03;5027272;28;20485;-72
2023/06/10 05:25:54;;;;;;;6.27;5.67;;;24.20;60.00;;;-147.95;100.00;61948.03;5025400;28;20462;-74
2023/06/10 05:28:22;;;;;;;5.97;5.47;;;24.40;59.70;;;-147.95;100.00;61948.03;5009111;28;20997;-73
2023/06/10 05:30:49;;;;;;;7.27;6.53;;;24.30;59.70;;;-147.95;100.00;61948.03;5026358;28;20464;-73
2023/06/10 05:33:16;;;;;;;5.90;5.40;;;24.50;59.90;;;-147.95;100.00;61948.03;5026129;28;20455;-72
2023/06/10 05:35:44;;;;;;;6.40;5.80;;;24.20;59.80;;;-147.95;100.00;61948.03;5026476;28;20462;-71
2023/06/10 05:38:12;;;;;;;6.00;5.50;;;24.60;59.20;;;-147.95;100.00;61948.03;5009143;28;20459;-73
2023/06/10 05:40:40;;;;;;;6.20;5.60;;;25.00;59.00;;;-147.95;100.00;61948.03;5026581;28;20857;-74
2023/06/10 05:43:07;;;;;;;6.40;5.80;;;25.50;58.30;;;-147.95;100.00;61948.03;5025877;28;20498;-72
2023/06/10 05:45:34;;;;;;;5.77;5.27;;;25.60;57.80;;;-147.95;100.00;61948.03;5026744;28;20866;-73
2023/06/10 05:48:02;;;;;;;5.53;5.03;;;25.00;58.00;;;-147.95;100.00;61948.03;5026603;28;20458;-74
2023/06/10 05:50:29;;;;;;;6.80;6.10;;;24.40;58.80;;;-147.95;100.00;61948.03;5026485;28;20457;-72
2023/06/10 05:52:57;;;;;;;6.90;6.30;;;24.10;59.50;;;-147.95;100.00;61948.03;5027407;28;20476;-73
2023/06/10 05:55:25;;;;;;;6.43;5.93;;;24.50;59.60;;;-147.95;100.00;61948.03;5028245;28;20466;-72
2023/06/10 05:58:00;;;;;;;5.43;4.93;;;25.20;59.00;;;-147.95;100.00;61948.03;5029218;28;20759;-73
2023/06/10 06:00:27;;;;;;;6.10;5.60;;;25.80;58.00;;;-147.95;100.00;61948.03;5030235;28;20454;-74
2023/06/10 06:02:55;;;;;;;6.60;6.00;;;26.10;57.50;;;-147.95;100.00;61948.03;5035124;28;20474;-75
2023/06/10 06:05:22;;;;;;;6.10;5.50;;;26.50;56.80;;;-147.95;100.00;61948.03;5027192;28;20476;-76
2023/06/10 06:07:50;;;;;;;6.50;5.90;;;26.80;56.40;;;-147.95;100.00;61948.03;5027848;28;20536;-75
2023/06/10 06:10:18;;;;;;;6.27;5.67;;;26.50;57.20;;;-147.95;100.00;61948.03;5025920;28;20451;-76
2023/06/10 06:12:47;;;;;;;6.90;5.83;;;26.90;56.50;;;-147.95;100.00;61948.03;5009308;28;20460;-75
2023/06/10 06:15:14;;;;;;;6.80;6.20;;;27.40;55.60;;;-147.95;100.00;61948.03;5027093;28;20945;-74
2023/06/10 06:17:42;;;;;;;7.10;6.40;;;27.20;55.40;;;-147.95;100.00;61948.03;5027479;28;21046;-76
2023/06/10 06:20:10;;;;;;;7.30;6.60;;;27.20;55.60;;;-147.95;100.00;61948.03;5028165;28;20884;-75
2023/06/10 06:22:37;;;;;;;6.90;6.30;;;27.30;55.60;;;-147.95;100.00;61948.03;5027314;28;20481;-75
2023/06/10 06:25:06;;;;;;;6.57;6.07;;;27.80;54.70;;;-147.95;100.00;61948.03;5024060;28;20460;-74
2023/06/10 06:27:33;;;;;;;7.90;6.77;;;27.70;55.00;;;-147.95;100.00;61948.03;5026492;28;20526;-75
2023/06/10 06:30:01;;;;;;;6.30;5.80;;;27.10;54.80;;;-147.95;100.00;61948.03;5006354;28;20456;-75
2023/06/10 06:32:30;;;;;;;6.63;5.93;;;26.10;55.80;;;-147.95;100.00;61948.03;5023983;28;20466;-73
2023/06/10 06:34:58;;;;;;;6.40;5.80;;;24.60;57.50;;;-147.95;100.00;61948.03;5027023;28;20496;-74
2023/06/10 06:37:26;;;;;;;7.77;7.07;;;23.50;59.50;;;-147.95;100.00;61948.03;5024125;28;20524;-75
2023/06/10 06:39:54;;;;;;;7.17;6.57;;;22.30;61.60;;;-147.95;100.00;61948.03;5024112;28;20465;-74
2023/06/10 06:42:22;;;;;;;7.23;6.53;;;21.60;64.50;;;-147.95;100.00;61948.03;5029844;28;20453;-75
2023/06/10 06:44:49;;;;;;;6.70;6.00;;;21.20;66.80;;;-147.95;100.00;61948.03;5009057;28;20471;-76
2023/06/10 06:47:19;;;;;;;6.70;6.00;;;21.20;67.70;;;-147.95;100.00;61948.03;5025859;28;20523;-75
2023/06/10 06:49:46;;;;;;;6.87;6.07;;;21.20;68.10;;;-147.95;100.00;61948.03;5008632;28;20514;-75
2023/06/10 06:52:14;;;;;;;7.23;6.03;;;21.30;68.30;;;-147.95;100.00;61948.03;5026092;28;20454;-74
2023/06/10 06:54:41;;;;;;;7.73;7.03;;;21.50;69.20;;;-147.95;100.00;61948.03;5026799;28;20527;-74
2023/06/10 06:57:09;;;;;;;6.37;5.77;;;21.50;69.30;;;-147.95;100.00;61948.03;5007915;28;20460;-75
2023/06/10 06:59:36;;;;;;;5.90;5.40;;;21.60;65.60;;;-147.95;100.00;61948.03;5026943;28;20889;-75
2023/06/10 07:02:04;;;;;;;5.83;5.43;;;21.60;65.60;;;-147.95;100.00;61948.03;5025680;28;20462;-74
2023/06/10 07:04:33;;;;;;;6.63;6.03;;;21.60;64.80;;;-147.95;100.00;61948.03;5024798;28;20488;-76
2023/06/10 07:07:00;;;;;;;6.60;5.90;;;21.60;64.40;;;-147.95;100.00;61948.03;5008509;28;20489;-74
2023/06/10 07:09:28;;;;;;;6.10;5.47;;;21.60;64.60;;;-147.95;100.00;61948.03;5028707;28;20477;-75
2023/06/10 07:11:55;;;;;;;6.37;5.77;;;21.60;64.50;;;-147.95;100.00;61948.03;5013841;28;20453;-75
2023/06/10 07:14:22;;;;;;;6.77;6.17;;;21.60;64.70;;;-147.95;100.00;61948.03;5030207;28;20457;-75
2023/06/10 07:16:49;;;;;;;6.17;5.60;;;21.70;64.50;;;-147.95;100.00;61948.03;5028862;28;20469;-75
2023/06/10 07:19:17;;;;;;;5.73;5.20;;;21.90;64.70;;;-147.95;100.00;61948.03;5030033;28;20524;-76
2023/06/10 07:21:45;;;;;;;5.90;5.50;;;22.00;64.60;;;-147.95;100.00;61948.03;5011477;28;21027;-77
2023/06/10 07:24:13;;;;;;;6.23;5.73;;;22.20;64.50;;;-147.95;100.00;61948.03;5026999;28;20505;-76
2023/06/10 07:26:40;;;;;;;6.13;5.63;;;22.30;64.30;;;-147.95;100.00;61948.03;5011291;28;20458;-75
2023/06/10 07:29:08;;;;;;;5.73;5.30;;;22.30;64.00;;;-147.95;100.00;61948.03;5027886;28;20633;-76
2023/06/10 07:31:35;;;;;;;6.37;5.77;;;22.30;63.30;;;-147.95;100.00;61948.03;5029018;28;20473;-75
2023/06/10 07:34:03;;;;;;;7.10;6.50;;;22.30;63.60;;;-147.95;100.00;61948.03;5028760;28;20470;-76
2023/06/10 07:36:30;;;;;;;5.77;5.27;;;22.30;63.50;;;-147.95;100.00;61948.03;5028701;28;21105;-76
2023/06/10 07:38:59;;;;;;;6.50;5.90;;;22.50;63.30;;;-147.95;100.00;61948.03;5029434;28;20492;-76
2023/06/10 07:41:26;;;;;;;5.73;5.13;;;22.50;62.20;;;-147.95;100.00;61948.03;5029612;28;20485;-75
2023/06/10 07:43:57;;;;;;;7.93;5.20;;;22.40;62.20;;;-147.95;100.00;61948.03;5015558;28;20508;-75
2023/06/10 07:46:26;;;;;;;6.70;6.20;;;22.40;62.40;;;-147.95;100.00;61948.03;5041012;28;20463;-77
2023/06/10 07:48:55;;;;;;;6.00;5.50;;;22.30;62.10;;;-147.95;100.00;61948.03;5035134;28;20496;-76
2023/06/10 07:51:23;;;;;;;6.77;6.17;;;22.40;62.80;;;-147.95;100.00;61948.03;5037966;28;20488;-74
2023/06/10 07:53:50;;;;;;;6.03;5.53;;;22.60;62.10;;;-147.95;100.00;61948.03;5044489;28;20524;-73
2023/06/10 07:56:20;;;;;;;5.20;4.80;;;22.70;61.70;;;-147.95;100.00;61948.03;5041749;28;20506;-73
2023/06/10 07:58:47;;;;;;;5.87;5.27;;;22.80;61.70;;;-147.95;100.00;61948.03;5025001;28;20541;-75
2023/06/10 08:01:15;;;;;;;5.60;5.10;;;22.80;61.10;;;-147.95;100.00;61948.03;5038893;28;20447;-75
2023/06/10 08:03:42;;;;;;;5.20;4.80;;;22.80;61.00;;;-147.95;100.00;61948.03;5034984;28;20514;-76
2023/06/10 08:06:11;;;;;;;5.23;4.83;;;23.00;61.10;;;-147.95;100.00;61948.03;5029057;28;20482;-74
2023/06/10 08:08:41;;;;;;;5.70;5.30;;;23.10;60.60;;;-147.95;100.00;61948.03;5011228;28;20461;-75
2023/06/10 08:11:09;;;;;;;5.67;5.17;;;23.10;60.80;;;-147.95;100.00;61948.03;5027179;28;20462;-75
2023/06/10 08:13:38;;;;;;;4.97;4.57;;;23.30;60.20;;;-147.95;100.00;61948.03;5011567;28;20454;-76
2023/06/10 08:16:05;;;;;;;5.00;4.60;;;23.40;60.30;;;-147.95;100.00;61948.03;5028685;28;20454;-77
2023/06/10 08:18:33;;;;;;;5.30;4.90;;;23.70;60.80;;;-147.95;100.00;61948.03;5010310;28;20468;-76
2023/06/10 08:21:00;;;;;;;5.33;4.83;;;23.70;59.60;;;-147.95;100.00;61948.03;5028473;28;20470;-73
2023/06/10 08:23:27;;;;;;;5.90;5.30;;;23.50;59.30;;;-147.95;100.00;61948.03;5008719;28;20481;-76
2023/06/10 08:25:55;;;;;;;5.10;4.70;;;23.40;59.70;;;-147.95;100.00;61948.03;5028519;28;21021;-75
2023/06/10 08:28:22;;;;;;;5.53;4.87;;;23.40;59.40;;;-147.95;100.00;61948.03;5028454;28;20489;-78
2023/06/10 08:30:50;;;;;;;5.13;4.73;;;23.40;59.70;;;-147.95;100.00;61948.03;5029725;28;20946;-76
2023/06/10 08:33:18;;;;;;;4.80;4.43;;;23.40;59.50;;;-147.95;100.00;61948.03;5029074;28;20459;-77
2023/06/10 08:35:45;;;;;;;5.07;4.67;;;23.70;59.90;;;-147.95;100.00;61948.03;5028348;28;20486;-77
2023/06/10 08:38:12;;;;;;;5.30;4.80;;;23.90;60.00;;;-147.95;100.00;61948.03;5028307;28;20462;-77
2023/06/10 08:40:40;;;;;;;4.67;4.33;;;24.20;59.80;;;-147.95;100.00;61948.03;5025591;28;20477;-76
2023/06/10 08:43:09;;;;;;;4.80;4.40;;;24.30;58.90;;;-147.95;100.00;61948.03;5009632;28;20494;-75
2023/06/10 08:45:37;;;;;;;4.53;4.23;;;24.10;58.40;;;-147.95;100.00;61948.03;5028214;28;20473;-78
2023/06/10 08:48:08;;;;;;;4.07;3.77;;;24.00;57.90;;;-147.95;100.00;61948.03;5033789;28;20463;-76
2023/06/10 08:50:38;;;;;;;4.27;3.87;;;24.00;58.30;;;-147.95;100.00;61948.03;5033976;28;20463;-74
2023/06/10 08:53:07;;;;;;;4.03;3.73;;;24.00;58.00;;;-147.95;100.00;61948.03;5033389;28;20452;-78
2023/06/10 08:55:37;;;;;;;4.37;3.97;;;24.00;58.00;;;-147.95;100.00;61948.03;5029778;28;20505;-75
2023/06/10 08:58:05;;;;;;;4.30;4.00;;;24.20;58.10;;;-147.95;100.00;61948.03;5027389;28;20447;-76
2023/06/10 09:00:33;;;;;;;3.97;3.63;;;24.40;57.60;;;-147.95;100.00;61948.03;5026330;28;20471;-75
2023/06/10 09:03:01;;;;;;;4.60;4.20;;;24.50;57.50;;;-147.95;100.00;61948.03;5027945;28;20470;-76
2023/06/10 09:05:34;;;;;;;3.93;3.40;;;24.60;56.80;;;-147.95;100.00;61948.03;5026979;28;20473;-76
2023/06/10 09:08:03;;;;;;;3.63;3.33;;;24.60;57.30;;;-147.95;100.00;61948.03;5027261;28;20460;-77
2023/06/10 09:10:31;;;;;;;3.83;3.53;;;24.60;56.80;;;-147.95;100.00;61948.03;5026400;28;20468;-76
2023/06/10 09:12:58;;;;;;;3.87;3.57;;;24.80;57.00;;;-147.95;100.00;61948.03;5026650;28;20464;-75
2023/06/10 09:15:26;;;;;;;3.90;3.60;;;25.00;56.20;;;-147.95;100.00;61948.03;5025950;28;20451;-74
2023/06/10 09:17:53;;;;;;;4.13;3.77;;;25.10;56.00;;;-147.95;100.00;61948.03;5011039;28;21076;-76
2023/06/10 09:20:21;;;;;;;3.80;3.50;;;25.30;56.00;;;-147.95;100.00;61948.03;5027582;28;20469;-75
2023/06/10 09:22:50;;;;;;;4.20;3.90;;;25.50;55.30;;;-147.95;100.00;61948.03;5028266;28;20461;-74
2023/06/10 09:25:17;;;;;;;4.07;3.67;;;25.60;55.40;;;-147.95;100.00;61948.03;5012613;28;20474;-77
2023/06/10 09:27:50;;;;;;;4.60;4.23;;;25.60;55.60;;;-147.95;100.00;61948.03;5012794;28;20460;-75
2023/06/10 09:30:28;;;;;;;4.20;3.90;;;25.20;55.70;;;-147.95;100.00;61948.03;5027767;28;20453;-76
2023/06/10 09:32:57;;;;;;;4.60;4.20;;;25.40;55.90;;;-147.95;100.00;61948.03;5026771;28;20459;-74
2023/06/10 09:35:24;;;;;;;4.40;4.10;;;25.70;55.30;;;-147.95;100.00;61948.03;5020803;28;20559;-74
2023/06/10 09:37:54;;;;;;;4.60;4.20;;;25.50;54.50;;;-147.95;100.00;61948.03;5020215;28;20473;-76
2023/06/10 09:40:22;;;;;;;4.07;3.77;;;25.40;54.30;;;-147.95;100.00;61948.03;5028175;28;20465;-77
2023/06/10 09:42:55;;;;;;;4.10;3.80;;;25.50;55.30;;;-147.95;100.00;61948.03;5011358;28;20451;-76
2023/06/10 09:45:24;;;;;;;4.30;4.00;;;25.90;54.90;;;-147.95;100.00;61948.03;5028453;28;20473;-75
2023/06/10 09:47:54;;;;;;;4.27;3.97;;;26.20;54.10;;;-147.95;100.00;61948.03;5021256;28;20545;-75
2023/06/10 09:50:23;;;;;;;4.57;4.17;;;26.10;54.20;;;-147.95;100.00;61948.03;5032325;28;20472;-76
2023/06/10 09:52:53;;;;;;;4.60;4.20;;;26.30;54.30;;;-147.95;100.00;61948.03;5009312;28;20820;-75
2023/06/10 09:55:20;;;;;;;4.40;4.10;;;26.60;54.30;;;-147.95;100.00;61948.03;5010858;28;20856;-77
2023/06/10 09:57:50;;;;;;;4.30;3.80;;;26.90;54.00;;;-147.95;100.00;61948.03;5009478;28;20500;-75
2023/06/10 10:00:19;;;;;;;4.80;4.13;;;27.10;53.50;;;-147.95;100.00;61948.03;5027757;28;20461;-75
2023/06/10 10:02:48;;;;;;;4.23;3.90;;;27.00;53.60;;;-147.95;100.00;61948.03;5009718;28;20490;-77
2023/06/10 10:05:18;;;;;;;4.90;4.50;;;27.20;53.70;;;-147.95;100.00;61948.03;5026213;28;20521;-76